createdAt,value
2022-09-27T00:01:18.010Z,98540.28
2022-09-27T00:03:45.735Z,98539.03
2022-09-27T00:06:25.989Z,98531.97
2022-09-27T00:08:57.000Z,98541.72
2022-09-27T00:11:37.361Z,98539.22
2022-09-27T00:14:07.221Z,98526.56
2022-09-27T00:16:39.714Z,98528.25
2022-09-27T00:19:16.865Z,98537.97
2022-09-27T00:21:46.118Z,98542.34
2022-09-27T00:24:25.052Z,98524.09
2022-09-27T00:26:51.848Z,98533.44
2022-09-27T00:29:19.930Z,98535.09
2022-09-27T00:31:47.415Z,98540.91
2022-09-27T00:34:26.000Z,98538.59
2022-09-27T00:36:53.498Z,98537.59
2022-09-27T00:39:20.572Z,98532.38
2022-09-27T00:41:47.800Z,98522.66
2022-09-27T00:44:37.704Z,98521.41
2022-09-27T00:47:30.130Z,98520.16
2022-09-27T00:50:17.171Z,98521.19
2022-09-27T00:53:12.395Z,98522.03
2022-09-27T00:56:00.106Z,98517.47
2022-09-27T00:58:39.914Z,98510.38
2022-09-27T01:01:14.124Z,98506.25
2022-09-27T01:04:08.993Z,98509.38
2022-09-27T01:06:38.018Z,98511.25
2022-09-27T01:09:11.224Z,98505.63
2022-09-27T01:12:15.009Z,98501.69
2022-09-27T01:15:14.048Z,98492.75
2022-09-27T01:18:25.047Z,98491.31
2022-09-27T01:21:19.383Z,98492.38
2022-09-27T01:24:06.273Z,98491.13
2022-09-27T01:26:57.408Z,98491.31
2022-09-27T01:30:04.718Z,98489.03
2022-09-27T01:32:50.532Z,98488.63
2022-09-27T01:35:37.257Z,98489.03
2022-09-27T01:38:24.325Z,98488.41
2022-09-27T01:41:20.254Z,98484.06
2022-09-27T01:44:07.218Z,98491.94
2022-09-27T01:46:58.837Z,98484.69
2022-09-27T01:50:18.226Z,98482.22
2022-09-27T01:52:59.962Z,98479.50
2022-09-27T01:55:38.370Z,98474.50
2022-09-27T01:58:26.097Z,98469.53
2022-09-27T02:00:57.240Z,98464.56
2022-09-27T02:03:43.448Z,98467.25
2022-09-27T02:06:34.921Z,98463.34
2022-09-27T02:09:23.087Z,98459.38
2022-09-27T02:12:06.801Z,98461.66
2022-09-27T02:14:55.768Z,98464.34
2022-09-27T02:17:37.430Z,98461.47
2022-09-27T02:20:33.866Z,98460.63
2022-09-27T02:23:27.159Z,98458.97
2022-09-27T02:26:15.951Z,98458.75
2022-09-27T02:29:22.482Z,98461.66
2022-09-27T02:31:50.658Z,98448.19
2022-09-27T02:34:29.534Z,98450.25
2022-09-27T02:36:58.732Z,98450.88
2022-09-27T02:39:26.221Z,98447.97
2022-09-27T02:41:53.227Z,98444.47
2022-09-27T02:44:21.428Z,98449.84
2022-09-27T02:47:33.813Z,98447.78
2022-09-27T02:50:42.248Z,98443.41
2022-09-27T02:53:44.878Z,98437.63
2022-09-27T02:56:35.878Z,98434.50
2022-09-27T02:59:46.103Z,98438.22
2022-09-27T03:02:56.673Z,98430.75
2022-09-27T03:05:49.110Z,98432.00
2022-09-27T03:08:16.798Z,98429.53
2022-09-27T03:10:46.646Z,98431.19
2022-09-27T03:13:13.763Z,98419.56
2022-09-27T03:15:40.461Z,98429.09
2022-09-27T03:18:07.358Z,98421.22
2022-09-27T03:20:34.516Z,98427.84
2022-09-27T03:23:01.240Z,98424.75
2022-09-27T03:25:27.953Z,98422.03
2022-09-27T03:27:54.846Z,98418.94
2022-09-27T03:30:21.720Z,98415.00
2022-09-27T03:32:48.748Z,98407.97
2022-09-27T03:35:15.814Z,98404.41
2022-09-27T03:37:42.855Z,98404.22
2022-09-27T03:40:11.005Z,98404.84
2022-09-27T03:42:39.510Z,98396.34
2022-09-27T03:45:07.316Z,98397.38
2022-09-27T03:47:34.220Z,98398.00
2022-09-27T03:50:01.139Z,98397.78
2022-09-27T03:52:28.193Z,98395.31
2022-09-27T03:54:59.736Z,98393.44
2022-09-27T03:57:30.661Z,98398.84
2022-09-27T03:59:59.809Z,98394.69
2022-09-27T04:02:28.240Z,98393.44
2022-09-27T04:04:55.084Z,98388.47
2022-09-27T04:07:21.885Z,98385.56
2022-09-27T04:09:48.583Z,98382.88
2022-09-27T04:17:37.450Z,98382.03
2022-09-27T04:31:20.928Z,98381.03
2022-09-27T04:33:48.071Z,98379.34
2022-09-27T04:36:27.618Z,98382.66
2022-09-27T04:39:01.450Z,98388.25
2022-09-27T04:41:31.792Z,98378.09
2022-09-27T04:44:02.959Z,98378.09
2022-09-27T04:49:12.249Z,98378.94
2022-09-27T04:51:39.906Z,98378.09
2022-09-27T04:54:08.512Z,98378.09
2022-09-27T05:05:04.512Z,98384.53
2022-09-27T05:10:15.935Z,98375.00
2022-09-27T05:26:10.614Z,98370.25
2022-09-27T05:28:39.632Z,98378.53
2022-09-27T05:33:47.477Z,98372.50
2022-09-27T05:36:16.594Z,98372.94
2022-09-27T05:44:08.312Z,98375.63
2022-09-27T06:05:51.106Z,98380.59
2022-09-27T06:11:12.492Z,98372.31
2022-09-27T06:16:22.853Z,98373.13
2022-09-27T06:21:32.089Z,98366.28
2022-09-27T06:29:25.283Z,98371.25
2022-09-27T08:41:25.567Z,98420.47
2022-09-27T08:44:14.996Z,98415.88
2022-09-27T09:04:47.164Z,98417.91
2022-09-27T09:29:14.030Z,98443.47
2022-09-27T09:54:02.943Z,98446.66
2022-09-27T10:13:45.125Z,98449.41
2022-09-27T10:58:32.431Z,98451.09
2022-09-27T11:04:01.065Z,98460.69
2022-09-27T11:06:38.996Z,98461.16
2022-09-27T11:45:19.817Z,98486.13
2022-09-27T11:48:53.898Z,98493.22
2022-09-27T12:33:35.838Z,98523.06
2022-09-27T12:36:14.668Z,98519.94
2022-09-27T23:38:18.031Z,98802.94
2022-09-27T23:40:47.354Z,98803.31
2022-09-27T23:43:14.249Z,98800.25
2022-09-27T23:45:41.142Z,98801.75
2022-09-27T23:48:07.822Z,98800.34
2022-09-27T23:50:37.196Z,98803.03
2022-09-27T23:53:04.003Z,98796.47
2022-09-27T23:55:30.589Z,98803.13
2022-09-27T23:57:57.263Z,98792.03
